sensor_id;sensor_type;location;lat;lon;timestamp;pressure;altitude;pressure_sealevel;temperature;humidity
10135;BME280;5107;48.850;8.924;2023-03-19T00:00:33;96509.88;;;10.14;63.67
10135;BME280;5107;48.850;8.924;2023-03-19T00:03:00;96511.69;;;10.13;64.57
10135;BME280;5107;48.850;8.924;2023-03-19T00:05:27;96512.38;;;10.07;65.23
10135;BME280;5107;48.850;8.924;2023-03-19T00:07:55;96503.81;;;10.05;65.09
10135;BME280;5107;48.850;8.924;2023-03-19T00:10:22;96508.50;;;9.95;65.80
10135;BME280;5107;48.850;8.924;2023-03-19T00:12:49;96505.06;;;9.95;65.83
10135;BME280;5107;48.850;8.924;2023-03-19T00:15:17;96505.06;;;9.95;65.85
10135;BME280;5107;48.850;8.924;2023-03-19T00:17:45;96501.91;;;9.99;65.44
10135;BME280;5107;48.850;8.924;2023-03-19T00:20:12;96498.44;;;9.99;65.39
10135;BME280;5107;48.850;8.924;2023-03-19T00:22:40;96501.91;;;9.99;65.13
10135;BME280;5107;48.850;8.924;2023-03-19T00:25:09;96503.03;;;9.97;65.83
10135;BME280;5107;48.850;8.924;2023-03-19T00:27:36;96494.97;;;10.06;65.06
10135;BME280;5107;48.850;8.924;2023-03-19T00:30:05;96495.78;;;10.07;64.87
10135;BME280;5107;48.850;8.924;2023-03-19T00:32:34;96493.69;;;10.02;65.43
10135;BME280;5107;48.850;8.924;2023-03-19T00:35:02;96501.06;;;9.99;65.76
10135;BME280;5107;48.850;8.924;2023-03-19T00:37:31;96492.72;;;9.95;65.68
10135;BME280;5107;48.850;8.924;2023-03-19T00:39:58;96485.00;;;9.94;65.77
10135;BME280;5107;48.850;8.924;2023-03-19T00:42:25;96496.84;;;9.89;65.66
10135;BME280;5107;48.850;8.924;2023-03-19T00:44:52;96501.31;;;9.81;66.32
10135;BME280;5107;48.850;8.924;2023-03-19T00:47:20;96497.72;;;9.74;67.58
10135;BME280;5107;48.850;8.924;2023-03-19T00:49:49;96500.03;;;9.77;67.80
10135;BME280;5107;48.850;8.924;2023-03-19T00:52:17;96499.66;;;9.80;67.35
10135;BME280;5107;48.850;8.924;2023-03-19T00:54:44;96506.22;;;9.84;67.37
10135;BME280;5107;48.850;8.924;2023-03-19T00:57:11;96503.91;;;9.89;67.73
10135;BME280;5107;48.850;8.924;2023-03-19T00:59:39;96510.84;;;9.82;67.64
10135;BME280;5107;48.850;8.924;2023-03-19T01:02:06;96519.88;;;9.71;68.50
10135;BME280;5107;48.850;8.924;2023-03-19T01:04:33;96514.31;;;9.74;68.64
10135;BME280;5107;48.850;8.924;2023-03-19T01:07:02;96512.50;;;9.75;69.45
10135;BME280;5107;48.850;8.924;2023-03-19T01:09:30;96510.84;;;9.82;68.92
10135;BME280;5107;48.850;8.924;2023-03-19T01:11:57;96523.66;;;9.85;66.79
10135;BME280;5107;48.850;8.924;2023-03-19T01:14:28;96533.00;;;9.79;68.17
10135;BME280;5107;48.850;8.924;2023-03-19T01:16:56;96533.34;;;9.76;68.36
10135;BME280;5107;48.850;8.924;2023-03-19T01:19:23;96542.69;;;9.87;67.33
10135;BME280;5107;48.850;8.924;2023-03-19T01:21:51;96539.84;;;9.97;67.35
10135;BME280;5107;48.850;8.924;2023-03-19T01:24:22;96552.53;;;9.93;66.98
10135;BME280;5107;48.850;8.924;2023-03-19T01:26:54;96565.66;;;9.93;66.42
10135;BME280;5107;48.850;8.924;2023-03-19T01:29:30;96568.63;;;9.90;68.21
10135;BME280;5107;48.850;8.924;2023-03-19T01:32:01;96575.72;;;9.81;70.03
10135;BME280;5107;48.850;8.924;2023-03-19T01:35:04;96584.94;;;9.77;71.16
10135;BME280;5107;48.850;8.924;2023-03-19T01:37:32;96578.72;;;9.70;71.75
10135;BME280;5107;48.850;8.924;2023-03-19T01:40:01;96580.19;;;9.48;74.56
10135;BME280;5107;48.850;8.924;2023-03-19T01:42:29;96583.50;;;9.34;77.02
10135;BME280;5107;48.850;8.924;2023-03-19T01:45:31;96593.34;;;9.16;78.78
10135;BME280;5107;48.850;8.924;2023-03-19T01:48:26;96590.06;;;8.98;81.97
10135;BME280;5107;48.850;8.924;2023-03-19T01:51:02;96596.59;;;8.78;84.40
10135;BME280;5107;48.850;8.924;2023-03-19T01:54:00;96588.88;;;8.68;84.75
10135;BME280;5107;48.850;8.924;2023-03-19T01:56:44;96585.75;;;8.64;86.19
10135;BME280;5107;48.850;8.924;2023-03-19T01:59:26;96582.00;;;8.75;86.98
10135;BME280;5107;48.850;8.924;2023-03-19T02:02:17;96580.88;;;9.02;86.20
10135;BME280;5107;48.850;8.924;2023-03-19T02:04:50;96577.91;;;9.13;87.72
10135;BME280;5107;48.850;8.924;2023-03-19T02:07:19;96576.94;;;9.14;86.80
10135;BME280;5107;48.850;8.924;2023-03-19T02:09:47;96572.19;;;9.18;87.03
10135;BME280;5107;48.850;8.924;2023-03-19T02:12:17;96566.94;;;9.26;87.28
10135;BME280;5107;48.850;8.924;2023-03-19T02:14:44;96556.09;;;9.37;87.87
10135;BME280;5107;48.850;8.924;2023-03-19T02:17:12;96552.81;;;9.35;89.19
10135;BME280;5107;48.850;8.924;2023-03-19T02:19:46;96549.53;;;9.33;89.41
10135;BME280;5107;48.850;8.924;2023-03-19T02:22:19;96560.53;;;9.28;90.62
10135;BME280;5107;48.850;8.924;2023-03-19T02:24:52;96554.47;;;9.20;90.24
10135;BME280;5107;48.850;8.924;2023-03-19T02:27:24;96562.50;;;9.18;90.66
10135;BME280;5107;48.850;8.924;2023-03-19T02:29:51;96565.13;;;9.18;90.77
10135;BME280;5107;48.850;8.924;2023-03-19T02:32:20;96562.84;;;9.15;90.13
10135;BME280;5107;48.850;8.924;2023-03-19T02:34:47;96566.78;;;9.11;92.34
10135;BME280;5107;48.850;8.924;2023-03-19T02:37:19;96564.63;;;9.06;93.07
10135;BME280;5107;48.850;8.924;2023-03-19T02:39:56;96568.41;;;8.96;92.91
10135;BME280;5107;48.850;8.924;2023-03-19T02:42:27;96566.59;;;8.88;92.63
10135;BME280;5107;48.850;8.924;2023-03-19T02:44:55;96566.78;;;8.87;92.56
10135;BME280;5107;48.850;8.924;2023-03-19T02:47:24;96563.34;;;8.86;91.76
10135;BME280;5107;48.850;8.924;2023-03-19T02:49:52;96566.25;;;8.83;91.03
10135;BME280;5107;48.850;8.924;2023-03-19T02:52:20;96580.38;;;8.82;90.45
10135;BME280;5107;48.850;8.924;2023-03-19T02:54:47;96573.97;;;8.77;91.08
10135;BME280;5107;48.850;8.924;2023-03-19T02:57:14;96570.69;;;8.74;90.93
10135;BME280;5107;48.850;8.924;2023-03-19T02:59:43;96573.97;;;8.68;90.95
10135;BME280;5107;48.850;8.924;2023-03-19T03:02:11;96577.03;;;8.64;91.12
10135;BME280;5107;48.850;8.924;2023-03-19T03:04:38;96575.75;;;8.60;91.08
10135;BME280;5107;48.850;8.924;2023-03-19T03:07:06;96577.53;;;8.59;90.58
10135;BME280;5107;48.850;8.924;2023-03-19T03:09:34;96578.53;;;8.66;90.53
10135;BME280;5107;48.850;8.924;2023-03-19T03:12:02;96579.06;;;8.70;91.24
10135;BME280;5107;48.850;8.924;2023-03-19T03:14:29;96578.41;;;8.76;90.96
10135;BME280;5107;48.850;8.924;2023-03-19T03:16:58;96580.38;;;8.82;91.58
10135;BME280;5107;48.850;8.924;2023-03-19T03:19:25;96579.38;;;8.75;91.25
10135;BME280;5107;48.850;8.924;2023-03-19T03:21:52;96580.03;;;8.77;91.39
10135;BME280;5107;48.850;8.924;2023-03-19T03:24:20;96575.28;;;8.81;91.06
10135;BME280;5107;48.850;8.924;2023-03-19T03:26:47;96577.56;;;8.75;91.33
10135;BME280;5107;48.850;8.924;2023-03-19T03:29:14;96582.66;;;8.69;90.39
10135;BME280;5107;48.850;8.924;2023-03-19T03:31:41;96585.75;;;8.64;90.21
10135;BME280;5107;48.850;8.924;2023-03-19T03:34:10;96585.44;;;8.67;89.30
10135;BME280;5107;48.850;8.924;2023-03-19T03:36:37;96582.97;;;8.74;88.28
10135;BME280;5107;48.850;8.924;2023-03-19T03:39:05;96590.19;;;8.80;88.33
10135;BME280;5107;48.850;8.924;2023-03-19T03:41:33;96586.44;;;8.83;89.25
10135;BME280;5107;48.850;8.924;2023-03-19T03:44:01;96582.16;;;8.82;89.60
10135;BME280;5107;48.850;8.924;2023-03-19T03:46:32;96583.97;;;8.81;88.87
10135;BME280;5107;48.850;8.924;2023-03-19T03:49:00;96589.72;;;8.85;88.65
10135;BME280;5107;48.850;8.924;2023-03-19T03:51:28;96591.19;;;8.87;89.47
10135;BME280;5107;48.850;8.924;2023-03-19T03:53:56;96597.91;;;8.90;89.72
10135;BME280;5107;48.850;8.924;2023-03-19T03:56:23;96600.22;;;8.93;89.70
10135;BME280;5107;48.850;8.924;2023-03-19T03:58:50;96600.72;;;8.96;89.45
10135;BME280;5107;48.850;8.924;2023-03-19T04:01:19;96602.19;;;9.07;88.94
10135;BME280;5107;48.850;8.924;2023-03-19T04:03:51;96591.88;;;9.13;89.12
10135;BME280;5107;48.850;8.924;2023-03-19T04:06:21;96606.78;;;9.13;89.50
10135;BME280;5107;48.850;8.924;2023-03-19T04:09:02;96606.47;;;9.08;90.24
10135;BME280;5107;48.850;8.924;2023-03-19T04:11:30;96610.75;;;9.09;90.76
10135;BME280;5107;48.850;8.924;2023-03-19T04:13:57;96611.72;;;9.08;90.35
10135;BME280;5107;48.850;8.924;2023-03-19T04:16:24;96609.75;;;9.10;90.71
10135;BME280;5107;48.850;8.924;2023-03-19T04:18:53;96611.56;;;9.09;90.80
10135;BME280;5107;48.850;8.924;2023-03-19T04:21:20;96606.31;;;9.26;90.65
10135;BME280;5107;48.850;8.924;2023-03-19T04:23:47;96606.97;;;9.28;90.45
10135;BME280;5107;48.850;8.924;2023-03-19T04:26:16;96612.22;;;9.36;89.74
10135;BME280;5107;48.850;8.924;2023-03-19T04:28:43;96605.50;;;9.25;89.99
10135;BME280;5107;48.850;8.924;2023-03-19T04:31:10;96604.81;;;9.15;90.59
10135;BME280;5107;48.850;8.924;2023-03-19T04:33:42;96621.25;;;9.09;90.66
10135;BME280;5107;48.850;8.924;2023-03-19T04:36:09;96614.66;;;9.05;90.61
10135;BME280;5107;48.850;8.924;2023-03-19T04:38:37;96619.59;;;9.16;90.80
10135;BME280;5107;48.850;8.924;2023-03-19T04:41:04;96621.09;;;9.10;90.98
10135;BME280;5107;48.850;8.924;2023-03-19T04:43:36;96614.03;;;9.11;91.16
10135;BME280;5107;48.850;8.924;2023-03-19T04:46:04;96614.34;;;9.08;90.44
10135;BME280;5107;48.850;8.924;2023-03-19T04:48:34;96622.88;;;9.02;91.23
10135;BME280;5107;48.850;8.924;2023-03-19T04:51:03;96623.50;;;8.96;91.20
10135;BME280;5107;48.850;8.924;2023-03-19T04:53:33;96622.03;;;8.93;91.28
10135;BME280;5107;48.850;8.924;2023-03-19T04:56:01;96625.00;;;8.98;91.64
10135;BME280;5107;48.850;8.924;2023-03-19T04:58:29;96615.47;;;8.97;91.93
10135;BME280;5107;48.850;8.924;2023-03-19T05:01:01;96632.88;;;8.98;92.21
10135;BME280;5107;48.850;8.924;2023-03-19T05:03:55;96628.13;;;8.94;92.13
10135;BME280;5107;48.850;8.924;2023-03-19T05:06:22;96635.31;;;8.92;92.36
10135;BME280;5107;48.850;8.924;2023-03-19T05:08:50;96634.00;;;8.96;92.43
10135;BME280;5107;48.850;8.924;2023-03-19T05:11:18;96627.28;;;8.93;92.79
10135;BME280;5107;48.850;8.924;2023-03-19T05:14:01;96634.16;;;8.86;93.06
10135;BME280;5107;48.850;8.924;2023-03-19T05:16:37;96636.94;;;8.77;93.10
10135;BME280;5107;48.850;8.924;2023-03-19T05:19:05;96639.00;;;8.65;93.88
10135;BME280;5107;48.850;8.924;2023-03-19T05:21:33;96643.41;;;8.56;94.10
10135;BME280;5107;48.850;8.924;2023-03-19T05:24:01;96635.22;;;8.51;93.91
10135;BME280;5107;48.850;8.924;2023-03-19T05:26:32;96638.97;;;8.49;93.88
10135;BME280;5107;48.850;8.924;2023-03-19T05:29:25;96639.94;;;8.48;93.73
10135;BME280;5107;48.850;8.924;2023-03-19T05:32:13;96646.97;;;8.47;93.09
10135;BME280;5107;48.850;8.924;2023-03-19T05:34:42;96648.97;;;8.45;93.66
10135;BME280;5107;48.850;8.924;2023-03-19T05:37:10;96644.69;;;8.44;93.19
10135;BME280;5107;48.850;8.924;2023-03-19T05:39:38;96653.38;;;8.45;92.48
10135;BME280;5107;48.850;8.924;2023-03-19T05:42:08;96642.72;;;8.46;91.98
10135;BME280;5107;48.850;8.924;2023-03-19T05:44:36;96656.34;;;8.50;90.91
10135;BME280;5107;48.850;8.924;2023-03-19T05:47:15;96654.38;;;8.52;90.92
10135;BME280;5107;48.850;8.924;2023-03-19T05:49:49;96653.72;;;8.50;91.19
10135;BME280;5107;48.850;8.924;2023-03-19T05:52:16;96656.53;;;8.56;89.37
10135;BME280;5107;48.850;8.924;2023-03-19T05:54:44;96652.94;;;8.65;88.23
10135;BME280;5107;48.850;8.924;2023-03-19T05:57:36;96650.34;;;8.65;88.78
10135;BME280;5107;48.850;8.924;2023-03-19T06:00:10;96660.16;;;8.63;88.68
10135;BME280;5107;48.850;8.924;2023-03-19T06:02:39;96658.34;;;8.64;87.86
10135;BME280;5107;48.850;8.924;2023-03-19T06:05:27;96662.97;;;8.70;85.60
10135;BME280;5107;48.850;8.924;2023-03-19T06:07:59;96665.47;;;8.88;82.99
10135;BME280;5107;48.850;8.924;2023-03-19T06:10:43;96657.63;;;9.04;81.27
10135;BME280;5107;48.850;8.924;2023-03-19T06:13:12;96673.22;;;9.05;82.58
10135;BME280;5107;48.850;8.924;2023-03-19T06:15:49;96673.56;;;9.02;83.06
10135;BME280;5107;48.850;8.924;2023-03-19T06:18:24;96673.72;;;9.01;82.50
10135;BME280;5107;48.850;8.924;2023-03-19T06:20:52;96681.59;;;9.01;83.27
10135;BME280;5107;48.850;8.924;2023-03-19T06:23:19;96683.84;;;8.96;83.48
10135;BME280;5107;48.850;8.924;2023-03-19T06:25:46;96676.16;;;8.94;83.79
10135;BME280;5107;48.850;8.924;2023-03-19T06:28:15;96679.91;;;8.92;83.76
10135;BME280;5107;48.850;8.924;2023-03-19T06:30:44;96684.50;;;8.90;84.94
10135;BME280;5107;48.850;8.924;2023-03-19T06:33:42;96676.63;;;8.90;84.21
10135;BME280;5107;48.850;8.924;2023-03-19T06:36:09;96669.59;;;8.90;84.16
10135;BME280;5107;48.850;8.924;2023-03-19T06:38:37;96667.09;;;8.89;84.66
10135;BME280;5107;48.850;8.924;2023-03-19T06:41:04;96669.09;;;8.87;85.20
10135;BME280;5107;48.850;8.924;2023-03-19T06:43:31;96676.44;;;8.83;85.06
10135;BME280;5107;48.850;8.924;2023-03-19T06:46:01;96675.63;;;8.83;84.89
10135;BME280;5107;48.850;8.924;2023-03-19T06:48:29;96677.13;;;8.85;84.19
10135;BME280;5107;48.850;8.924;2023-03-19T06:50:58;96675.66;;;8.91;83.75
10135;BME280;5107;48.850;8.924;2023-03-19T06:53:26;96672.88;;;8.92;83.53
10135;BME280;5107;48.850;8.924;2023-03-19T06:55:53;96677.00;;;8.95;83.23
10135;BME280;5107;48.850;8.924;2023-03-19T06:58:21;96678.28;;;8.99;83.09
10135;BME280;5107;48.850;8.924;2023-03-19T07:00:48;96677.47;;;8.98;83.78
10135;BME280;5107;48.850;8.924;2023-03-19T07:03:15;96683.22;;;9.02;82.91
10135;BME280;5107;48.850;8.924;2023-03-19T07:05:43;96684.88;;;9.03;83.03
10135;BME280;5107;48.850;8.924;2023-03-19T07:08:11;96677.50;;;9.06;83.33
10135;BME280;5107;48.850;8.924;2023-03-19T07:10:38;96683.25;;;9.10;82.57
10135;BME280;5107;48.850;8.924;2023-03-19T07:13:06;96680.13;;;9.14;83.05
10135;BME280;5107;48.850;8.924;2023-03-19T07:15:33;96683.25;;;9.18;83.04
10135;BME280;5107;48.850;8.924;2023-03-19T07:18:01;96682.75;;;9.23;82.51
10135;BME280;5107;48.850;8.924;2023-03-19T07:20:28;96692.44;;;9.30;81.94
10135;BME280;5107;48.850;8.924;2023-03-19T07:22:55;96697.41;;;9.33;81.54
10135;BME280;5107;48.850;8.924;2023-03-19T07:25:23;96702.34;;;9.36;81.92
10135;BME280;5107;48.850;8.924;2023-03-19T07:27:51;96695.75;;;9.40;80.66
10135;BME280;5107;48.850;8.924;2023-03-19T07:30:18;96697.72;;;9.46;81.02
10135;BME280;5107;48.850;8.924;2023-03-19T07:32:45;96701.53;;;9.52;80.72
10135;BME280;5107;48.850;8.924;2023-03-19T07:35:12;96708.41;;;9.61;80.42
10135;BME280;5107;48.850;8.924;2023-03-19T07:37:41;96712.03;;;9.68;80.21
10135;BME280;5107;48.850;8.924;2023-03-19T07:40:10;96705.94;;;9.76;81.16
10135;BME280;5107;48.850;8.924;2023-03-19T07:42:38;96701.84;;;9.81;78.89
10135;BME280;5107;48.850;8.924;2023-03-19T07:45:07;96711.53;;;9.89;79.50
10135;BME280;5107;48.850;8.924;2023-03-19T07:47:34;96704.13;;;9.93;79.44
10135;BME280;5107;48.850;8.924;2023-03-19T07:50:02;96699.19;;;9.98;78.83
10135;BME280;5107;48.850;8.924;2023-03-19T07:52:29;96701.34;;;10.02;78.54
10135;BME280;5107;48.850;8.924;2023-03-19T07:54:56;96700.66;;;10.08;78.31
10135;BME280;5107;48.850;8.924;2023-03-19T07:57:23;96704.25;;;10.15;78.35
10135;BME280;5107;48.850;8.924;2023-03-19T07:59:53;96705.41;;;10.21;77.92
10135;BME280;5107;48.850;8.924;2023-03-19T08:02:20;96705.25;;;10.31;77.28
10135;BME280;5107;48.850;8.924;2023-03-19T08:04:47;96702.59;;;10.39;77.06
10135;BME280;5107;48.850;8.924;2023-03-19T08:07:15;96700.94;;;10.46;76.03
10135;BME280;5107;48.850;8.924;2023-03-19T08:09:42;96700.94;;;10.46;75.41
10135;BME280;5107;48.850;8.924;2023-03-19T08:12:10;96703.75;;;10.44;75.97
10135;BME280;5107;48.850;8.924;2023-03-19T08:14:37;96706.53;;;10.43;76.50
10135;BME280;5107;48.850;8.924;2023-03-19T08:17:06;96702.75;;;10.45;76.95
10135;BME280;5107;48.850;8.924;2023-03-19T08:19:34;96707.00;;;10.46;76.33
10135;BME280;5107;48.850;8.924;2023-03-19T08:22:01;96710.13;;;10.50;76.60
10135;BME280;5107;48.850;8.924;2023-03-19T08:24:28;96706.50;;;10.59;76.20
10135;BME280;5107;48.850;8.924;2023-03-19T08:26:56;96710.56;;;10.70;76.00
10135;BME280;5107;48.850;8.924;2023-03-19T08:29:23;96711.34;;;10.78;74.78
10135;BME280;5107;48.850;8.924;2023-03-19T08:31:51;96712.81;;;10.81;73.81
10135;BME280;5107;48.850;8.924;2023-03-19T08:34:20;96711.75;;;10.98;74.62
10135;BME280;5107;48.850;8.924;2023-03-19T08:36:48;96714.00;;;11.09;73.70
10135;BME280;5107;48.850;8.924;2023-03-19T08:39:15;96715.50;;;11.34;73.19
10135;BME280;5107;48.850;8.924;2023-03-19T08:41:42;96719.34;;;11.77;71.79
10135;BME280;5107;48.850;8.924;2023-03-19T08:44:09;96718.09;;;12.26;69.11
10135;BME280;5107;48.850;8.924;2023-03-19T08:46:39;96712.94;;;12.62;67.83
10135;BME280;5107;48.850;8.924;2023-03-19T08:49:07;96715.84;;;12.67;66.56
10135;BME280;5107;48.850;8.924;2023-03-19T08:51:35;96721.47;;;12.64;67.35
10135;BME280;5107;48.850;8.924;2023-03-19T08:54:03;96721.47;;;12.34;65.84
10135;BME280;5107;48.850;8.924;2023-03-19T08:56:30;96720.66;;;12.34;68.96
10135;BME280;5107;48.850;8.924;2023-03-19T08:58:57;96723.03;;;12.29;67.12
10135;BME280;5107;48.850;8.924;2023-03-19T09:01:25;96736.13;;;12.51;67.68
10135;BME280;5107;48.850;8.924;2023-03-19T09:03:52;96734.41;;;12.59;65.72
10135;BME280;5107;48.850;8.924;2023-03-19T09:06:19;96724.00;;;13.01;65.26
10135;BME280;5107;48.850;8.924;2023-03-19T09:08:48;96729.78;;;13.41;63.93
10135;BME280;5107;48.850;8.924;2023-03-19T09:11:15;96721.81;;;13.19;63.76
10135;BME280;5107;48.850;8.924;2023-03-19T09:13:42;96722.00;;;13.18;64.16
10135;BME280;5107;48.850;8.924;2023-03-19T09:16:10;96724.53;;;13.11;62.98
10135;BME280;5107;48.850;8.924;2023-03-19T09:18:37;96726.94;;;13.42;62.75
10135;BME280;5107;48.850;8.924;2023-03-19T09:21:04;96725.88;;;13.37;62.41
10135;BME280;5107;48.850;8.924;2023-03-19T09:23:32;96727.34;;;13.82;60.12
10135;BME280;5107;48.850;8.924;2023-03-19T09:26:00;96721.59;;;14.21;60.71
10135;BME280;5107;48.850;8.924;2023-03-19T09:28:28;96724.06;;;14.22;58.25
10135;BME280;5107;48.850;8.924;2023-03-19T09:30:55;96729.81;;;14.32;57.82
10135;BME280;5107;48.850;8.924;2023-03-19T09:33:22;96723.22;;;14.22;57.33
10135;BME280;5107;48.850;8.924;2023-03-19T09:35:51;96727.16;;;13.83;58.78
10135;BME280;5107;48.850;8.924;2023-03-19T09:38:20;96727.53;;;13.59;60.12
10135;BME280;5107;48.850;8.924;2023-03-19T09:40:53;96736.06;;;13.40;60.99
10135;BME280;5107;48.850;8.924;2023-03-19T09:43:44;96731.16;;;13.37;61.37
10135;BME280;5107;48.850;8.924;2023-03-19T09:46:18;96726.09;;;13.20;61.40
10135;BME280;5107;48.850;8.924;2023-03-19T09:48:51;96724.00;;;13.16;61.50
10135;BME280;5107;48.850;8.924;2023-03-19T09:51:26;96721.44;;;13.22;63.20
10135;BME280;5107;48.850;8.924;2023-03-19T09:53:58;96717.69;;;13.32;62.46
10135;BME280;5107;48.850;8.924;2023-03-19T09:56:27;96718.53;;;13.53;61.28
10135;BME280;5107;48.850;8.924;2023-03-19T09:58:56;96708.63;;;14.04;61.18
10135;BME280;5107;48.850;8.924;2023-03-19T10:01:26;96701.06;;;14.57;59.21
10135;BME280;5107;48.850;8.924;2023-03-19T10:04:13;96709.84;;;14.99;57.91
10135;BME280;5107;48.850;8.924;2023-03-19T10:06:45;96705.94;;;15.49;57.03
10135;BME280;5107;48.850;8.924;2023-03-19T10:09:29;96705.38;;;15.53;53.17
10135;BME280;5107;48.850;8.924;2023-03-19T10:12:12;96700.25;;;15.52;53.36
10135;BME280;5107;48.850;8.924;2023-03-19T10:15:29;96703.19;;;16.16;51.86
10135;BME280;5107;48.850;8.924;2023-03-19T10:18:00;96702.38;;;16.29;51.33
10135;BME280;5107;48.850;8.924;2023-03-19T10:20:43;96718.91;;;16.38;50.98
10135;BME280;5107;48.850;8.924;2023-03-19T10:23:38;96705.22;;;16.41;50.14
10135;BME280;5107;48.850;8.924;2023-03-19T10:26:11;96697.00;;;16.75;49.49
10135;BME280;5107;48.850;8.924;2023-03-19T10:28:42;96701.03;;;16.97;50.37
10135;BME280;5107;48.850;8.924;2023-03-19T10:31:24;96709.19;;;17.02;49.83
10135;BME280;5107;48.850;8.924;2023-03-19T10:34:04;96698.63;;;16.76;49.17
10135;BME280;5107;48.850;8.924;2023-03-19T10:36:36;96703.25;;;17.00;49.75
10135;BME280;5107;48.850;8.924;2023-03-19T10:39:05;96695.97;;;16.89;48.37
10135;BME280;5107;48.850;8.924;2023-03-19T10:41:47;96700.69;;;16.74;46.29
10135;BME280;5107;48.850;8.924;2023-03-19T10:44:27;96693.75;;;16.73;47.38
10135;BME280;5107;48.850;8.924;2023-03-19T10:47:08;96688.88;;;16.44;48.33
10135;BME280;5107;48.850;8.924;2023-03-19T10:49:36;96682.13;;;16.61;49.35
10135;BME280;5107;48.850;8.924;2023-03-19T10:52:04;96685.41;;;16.63;48.48
10135;BME280;5107;48.850;8.924;2023-03-19T10:54:31;96689.28;;;16.54;46.49
10135;BME280;5107;48.850;8.924;2023-03-19T10:56:59;96690.69;;;16.50;47.84
10135;BME280;5107;48.850;8.924;2023-03-19T10:59:32;96694.38;;;16.49;47.38
10135;BME280;5107;48.850;8.924;2023-03-19T11:02:16;96679.09;;;16.18;47.03
10135;BME280;5107;48.850;8.924;2023-03-19T11:04:44;96682.56;;;16.12;47.39
10135;BME280;5107;48.850;8.924;2023-03-19T11:07:16;96681.16;;;15.96;48.38
10135;BME280;5107;48.850;8.924;2023-03-19T11:09:46;96683.16;;;15.74;48.59
10135;BME280;5107;48.850;8.924;2023-03-19T11:12:18;96672.53;;;15.54;49.22
10135;BME280;5107;48.850;8.924;2023-03-19T11:14:49;96682.16;;;15.62;49.48
10135;BME280;5107;48.850;8.924;2023-03-19T11:17:22;96678.28;;;15.91;49.70
10135;BME280;5107;48.850;8.924;2023-03-19T11:19:53;96676.03;;;16.27;47.86
10135;BME280;5107;48.850;8.924;2023-03-19T11:22:23;96665.59;;;16.32;48.46
10135;BME280;5107;48.850;8.924;2023-03-19T11:24:54;96670.09;;;16.39;48.88
10135;BME280;5107;48.850;8.924;2023-03-19T11:27:30;96670.47;;;16.49;47.66
10135;BME280;5107;48.850;8.924;2023-03-19T11:30:00;96669.06;;;16.46;47.64
10135;BME280;5107;48.850;8.924;2023-03-19T11:32:58;96663.94;;;16.45;48.76
10135;BME280;5107;48.850;8.924;2023-03-19T11:35:34;96667.25;;;16.20;50.16
10135;BME280;5107;48.850;8.924;2023-03-19T11:38:10;96663.16;;;16.31;50.45
10135;BME280;5107;48.850;8.924;2023-03-19T11:40:47;96666.44;;;16.20;50.07
10135;BME280;5107;48.850;8.924;2023-03-19T11:43:39;96666.84;;;16.10;50.26
10135;BME280;5107;48.850;8.924;2023-03-19T11:46:22;96660.91;;;15.82;51.04
10135;BME280;5107;48.850;8.924;2023-03-19T11:49:39;96657.25;;;15.63;51.67
10135;BME280;5107;48.850;8.924;2023-03-19T11:52:15;96656.63;;;15.74;52.87
10135;BME280;5107;48.850;8.924;2023-03-19T11:55:00;96655.84;;;15.87;52.75
10135;BME280;5107;48.850;8.924;2023-03-19T11:57:46;96650.31;;;15.82;53.25
10135;BME280;5107;48.850;8.924;2023-03-19T12:00:29;96651.31;;;15.61;54.10
10135;BME280;5107;48.850;8.924;2023-03-19T12:03:28;96677.75;;;15.35;55.54
10135;BME280;5107;48.850;8.924;2023-03-19T12:06:09;96685.69;;;14.74;59.00
10135;BME280;5107;48.850;8.924;2023-03-19T12:08:46;96687.22;;;13.99;60.00
10135;BME280;5107;48.850;8.924;2023-03-19T12:11:21;96693.16;;;13.59;66.29
10135;BME280;5107;48.850;8.924;2023-03-19T12:14:05;96673.94;;;12.93;69.67
10135;BME280;5107;48.850;8.924;2023-03-19T12:16:51;96669.50;;;12.79;72.43
10135;BME280;5107;48.850;8.924;2023-03-19T12:19:48;96675.34;;;12.60;74.51
10135;BME280;5107;48.850;8.924;2023-03-19T12:22:38;96680.25;;;12.63;76.85
10135;BME280;5107;48.850;8.924;2023-03-19T12:25:23;96671.94;;;12.66;77.36
10135;BME280;5107;48.850;8.924;2023-03-19T12:27:55;96667.50;;;12.66;77.31
10135;BME280;5107;48.850;8.924;2023-03-19T12:30:33;96666.97;;;12.71;71.67
10135;BME280;5107;48.850;8.924;2023-03-19T12:33:27;96671.75;;;12.82;71.42
10135;BME280;5107;48.850;8.924;2023-03-19T12:36:03;96668.81;;;12.91;75.57
10135;BME280;5107;48.850;8.924;2023-03-19T12:38:38;96672.47;;;13.05;73.46
10135;BME280;5107;48.850;8.924;2023-03-19T12:41:09;96668.84;;;13.27;70.81
10135;BME280;5107;48.850;8.924;2023-03-19T12:43:47;96671.63;;;13.41;68.41
10135;BME280;5107;48.850;8.924;2023-03-19T12:46:23;96668.72;;;13.57;67.55
10135;BME280;5107;48.850;8.924;2023-03-19T12:48:55;96667.09;;;13.77;66.54
10135;BME280;5107;48.850;8.924;2023-03-19T12:51:28;96671.66;;;13.90;69.04
10135;BME280;5107;48.850;8.924;2023-03-19T12:54:03;96665.66;;;14.02;73.22
10135;BME280;5107;48.850;8.924;2023-03-19T12:56:36;96669.69;;;14.26;69.98
10135;BME280;5107;48.850;8.924;2023-03-19T12:59:12;96671.34;;;14.55;66.45
10135;BME280;5107;48.850;8.924;2023-03-19T13:01:46;96659.25;;;14.80;62.18
10135;BME280;5107;48.850;8.924;2023-03-19T13:04:19;96663.28;;;14.76;64.96
10135;BME280;5107;48.850;8.924;2023-03-19T13:06:53;96659.28;;;14.94;62.97
10135;BME280;5107;48.850;8.924;2023-03-19T13:09:31;96660.75;;;15.03;63.29
10135;BME280;5107;48.850;8.924;2023-03-19T13:12:04;96651.81;;;15.10;62.12
10135;BME280;5107;48.850;8.924;2023-03-19T13:14:44;96651.59;;;15.05;62.07
10135;BME280;5107;48.850;8.924;2023-03-19T13:17:22;96645.88;;;15.08;62.93
10135;BME280;5107;48.850;8.924;2023-03-19T13:19:53;96654.84;;;15.07;62.80
10135;BME280;5107;48.850;8.924;2023-03-19T13:22:24;96658.53;;;15.13;62.86
10135;BME280;5107;48.850;8.924;2023-03-19T13:24:54;96660.13;;;15.01;62.66
10135;BME280;5107;48.850;8.924;2023-03-19T13:27:25;96665.84;;;15.04;62.08
10135;BME280;5107;48.850;8.924;2023-03-19T13:30:00;96667.66;;;14.97;61.78
10135;BME280;5107;48.850;8.924;2023-03-19T13:32:38;96664.97;;;14.91;64.69
10135;BME280;5107;48.850;8.924;2023-03-19T13:35:36;96669.25;;;14.85;63.87
10135;BME280;5107;48.850;8.924;2023-03-19T13:38:16;96669.38;;;14.70;65.62
10135;BME280;5107;48.850;8.924;2023-03-19T13:40:49;96670.13;;;14.58;67.19
10135;BME280;5107;48.850;8.924;2023-03-19T13:46:44;96675.69;;;14.69;67.08